sensor_id;sensor_type;location;lat;lon;timestamp;P1;durP1;ratioP1;P2;durP2;ratioP2
49123;SDS011;48506;48.202;16.274;2024-02-26T00:00:03;8.10;;;3.28;;
49123;SDS011;48506;48.202;16.274;2024-02-26T00:02:35;9.02;;;3.47;;
49123;SDS011;48506;48.202;16.274;2024-02-26T00:05:04;7.05;;;3.20;;
49123;SDS011;48506;48.202;16.274;2024-02-26T00:07:33;10.18;;;3.53;;
49123;SDS011;48506;48.202;16.274;2024-02-26T00:10:00;7.88;;;3.42;;
49123;SDS011;48506;48.202;16.274;2024-02-26T00:12:26;10.15;;;3.40;;
49123;SDS011;48506;48.202;16.274;2024-02-26T00:14:51;6.95;;;3.63;;
49123;SDS011;48506;48.202;16.274;2024-02-26T00:17:18;6.88;;;3.08;;
49123;SDS011;48506;48.202;16.274;2024-02-26T00:19:44;8.57;;;3.47;;
49123;SDS011;48506;48.202;16.274;2024-02-26T00:22:10;7.28;;;3.50;;
49123;SDS011;48506;48.202;16.274;2024-02-26T00:24:36;7.25;;;3.20;;
49123;SDS011;48506;48.202;16.274;2024-02-26T00:27:02;8.57;;;3.92;;
49123;SDS011;48506;48.202;16.274;2024-02-26T00:29:28;8.02;;;3.63;;
49123;SDS011;48506;48.202;16.274;2024-02-26T00:31:54;8.82;;;3.42;;
49123;SDS011;48506;48.202;16.274;2024-02-26T00:34:20;8.18;;;4.15;;
49123;SDS011;48506;48.202;16.274;2024-02-26T00:36:46;10.38;;;3.72;;
49123;SDS011;48506;48.202;16.274;2024-02-26T00:39:11;12.18;;;3.83;;
49123;SDS011;48506;48.202;16.274;2024-02-26T00:41:38;10.35;;;4.30;;
49123;SDS011;48506;48.202;16.274;2024-02-26T00:44:05;7.93;;;3.90;;
49123;SDS011;48506;48.202;16.274;2024-02-26T00:46:31;9.95;;;4.18;;
49123;SDS011;48506;48.202;16.274;2024-02-26T00:48:57;10.05;;;4.22;;
49123;SDS011;48506;48.202;16.274;2024-02-26T00:51:23;7.22;;;3.50;;
49123;SDS011;48506;48.202;16.274;2024-02-26T00:53:49;9.18;;;3.88;;
49123;SDS011;48506;48.202;16.274;2024-02-26T00:56:15;7.20;;;3.75;;
49123;SDS011;48506;48.202;16.274;2024-02-26T00:58:40;8.98;;;3.80;;
49123;SDS011;48506;48.202;16.274;2024-02-26T01:01:06;11.55;;;4.80;;
49123;SDS011;48506;48.202;16.274;2024-02-26T01:03:32;10.27;;;3.83;;
49123;SDS011;48506;48.202;16.274;2024-02-26T01:05:58;14.43;;;3.65;;
49123;SDS011;48506;48.202;16.274;2024-02-26T01:08:24;8.35;;;3.83;;
49123;SDS011;48506;48.202;16.274;2024-02-26T01:10:50;9.40;;;4.47;;
49123;SDS011;48506;48.202;16.274;2024-02-26T01:13:16;9.63;;;4.22;;
49123;SDS011;48506;48.202;16.274;2024-02-26T01:15:41;10.98;;;4.40;;
49123;SDS011;48506;48.202;16.274;2024-02-26T01:18:09;6.03;;;3.88;;
49123;SDS011;48506;48.202;16.274;2024-02-26T01:20:35;10.82;;;4.10;;
49123;SDS011;48506;48.202;16.274;2024-02-26T01:23:01;7.75;;;4.03;;
49123;SDS011;48506;48.202;16.274;2024-02-26T01:25:28;8.48;;;4.80;;
49123;SDS011;48506;48.202;16.274;2024-02-26T01:27:54;12.40;;;5.65;;
49123;SDS011;48506;48.202;16.274;2024-02-26T01:30:21;16.38;;;4.80;;
49123;SDS011;48506;48.202;16.274;2024-02-26T01:32:47;7.38;;;4.10;;
49123;SDS011;48506;48.202;16.274;2024-02-26T01:35:13;9.57;;;4.25;;
49123;SDS011;48506;48.202;16.274;2024-02-26T01:37:39;6.05;;;3.42;;
49123;SDS011;48506;48.202;16.274;2024-02-26T01:40:05;7.28;;;3.72;;
49123;SDS011;48506;48.202;16.274;2024-02-26T01:42:34;13.63;;;5.17;;
49123;SDS011;48506;48.202;16.274;2024-02-26T01:45:03;6.93;;;4.43;;
49123;SDS011;48506;48.202;16.274;2024-02-26T01:47:32;8.77;;;4.20;;
49123;SDS011;48506;48.202;16.274;2024-02-26T01:49:58;9.43;;;4.93;;
49123;SDS011;48506;48.202;16.274;2024-02-26T01:52:24;12.18;;;4.45;;
49123;SDS011;48506;48.202;16.274;2024-02-26T01:54:51;16.80;;;4.80;;
49123;SDS011;48506;48.202;16.274;2024-02-26T01:57:17;7.68;;;4.18;;
49123;SDS011;48506;48.202;16.274;2024-02-26T01:59:43;16.40;;;7.50;;
49123;SDS011;48506;48.202;16.274;2024-02-26T02:02:09;15.20;;;6.13;;
49123;SDS011;48506;48.202;16.274;2024-02-26T02:04:36;13.45;;;7.38;;
49123;SDS011;48506;48.202;16.274;2024-02-26T02:07:04;9.50;;;5.03;;
49123;SDS011;48506;48.202;16.274;2024-02-26T02:09:30;11.30;;;4.95;;
49123;SDS011;48506;48.202;16.274;2024-02-26T02:11:57;8.90;;;4.68;;
49123;SDS011;48506;48.202;16.274;2024-02-26T02:14:24;8.13;;;4.38;;
49123;SDS011;48506;48.202;16.274;2024-02-26T02:16:51;13.45;;;4.70;;
49123;SDS011;48506;48.202;16.274;2024-02-26T02:19:17;10.57;;;5.07;;
49123;SDS011;48506;48.202;16.274;2024-02-26T02:21:43;14.02;;;4.82;;
49123;SDS011;48506;48.202;16.274;2024-02-26T02:24:08;13.35;;;5.53;;
49123;SDS011;48506;48.202;16.274;2024-02-26T02:26:35;9.20;;;4.18;;
49123;SDS011;48506;48.202;16.274;2024-02-26T02:29:01;11.45;;;4.05;;
49123;SDS011;48506;48.202;16.274;2024-02-26T02:31:27;6.20;;;3.92;;
49123;SDS011;48506;48.202;16.274;2024-02-26T02:33:53;9.70;;;4.30;;
49123;SDS011;48506;48.202;16.274;2024-02-26T02:36:19;5.60;;;3.35;;
49123;SDS011;48506;48.202;16.274;2024-02-26T02:38:49;12.35;;;4.55;;
49123;SDS011;48506;48.202;16.274;2024-02-26T02:41:16;8.95;;;4.63;;
49123;SDS011;48506;48.202;16.274;2024-02-26T02:43:42;10.93;;;4.25;;
49123;SDS011;48506;48.202;16.274;2024-02-26T02:46:08;9.98;;;4.18;;
49123;SDS011;48506;48.202;16.274;2024-02-26T02:48:36;9.93;;;3.60;;
49123;SDS011;48506;48.202;16.274;2024-02-26T02:51:02;9.77;;;3.70;;
49123;SDS011;48506;48.202;16.274;2024-02-26T02:53:28;26.75;;;3.90;;
49123;SDS011;48506;48.202;16.274;2024-02-26T02:55:54;10.73;;;3.13;;
49123;SDS011;48506;48.202;16.274;2024-02-26T02:58:20;6.80;;;3.00;;
49123;SDS011;48506;48.202;16.274;2024-02-26T03:00:46;8.23;;;5.15;;
49123;SDS011;48506;48.202;16.274;2024-02-26T03:03:12;5.93;;;3.30;;
49123;SDS011;48506;48.202;16.274;2024-02-26T03:05:38;10.18;;;3.85;;
49123;SDS011;48506;48.202;16.274;2024-02-26T03:08:04;6.15;;;2.95;;
49123;SDS011;48506;48.202;16.274;2024-02-26T03:10:30;9.02;;;4.18;;
49123;SDS011;48506;48.202;16.274;2024-02-26T03:12:56;9.65;;;3.00;;
49123;SDS011;48506;48.202;16.274;2024-02-26T03:15:22;6.97;;;4.28;;
49123;SDS011;48506;48.202;16.274;2024-02-26T03:17:48;10.52;;;4.03;;
49123;SDS011;48506;48.202;16.274;2024-02-26T03:20:14;5.55;;;3.33;;
49123;SDS011;48506;48.202;16.274;2024-02-26T03:22:39;9.82;;;4.13;;
49123;SDS011;48506;48.202;16.274;2024-02-26T03:25:06;7.15;;;3.85;;
49123;SDS011;48506;48.202;16.274;2024-02-26T03:27:32;10.50;;;4.75;;
49123;SDS011;48506;48.202;16.274;2024-02-26T03:29:58;9.25;;;3.45;;
49123;SDS011;48506;48.202;16.274;2024-02-26T03:32:24;8.43;;;2.88;;
49123;SDS011;48506;48.202;16.274;2024-02-26T03:34:50;8.18;;;3.45;;
49123;SDS011;48506;48.202;16.274;2024-02-26T03:37:19;9.18;;;3.83;;
49123;SDS011;48506;48.202;16.274;2024-02-26T03:39:45;9.10;;;3.83;;
49123;SDS011;48506;48.202;16.274;2024-02-26T03:42:11;7.05;;;3.20;;
49123;SDS011;48506;48.202;16.274;2024-02-26T03:44:37;9.93;;;3.42;;
49123;SDS011;48506;48.202;16.274;2024-02-26T03:47:02;7.90;;;3.40;;
49123;SDS011;48506;48.202;16.274;2024-02-26T03:49:28;7.32;;;3.83;;
49123;SDS011;48506;48.202;16.274;2024-02-26T03:51:54;12.68;;;4.60;;
49123;SDS011;48506;48.202;16.274;2024-02-26T03:54:20;13.13;;;4.15;;
49123;SDS011;48506;48.202;16.274;2024-02-26T03:56:46;12.30;;;3.40;;
49123;SDS011;48506;48.202;16.274;2024-02-26T03:59:12;11.07;;;3.97;;
49123;SDS011;48506;48.202;16.274;2024-02-26T04:01:37;11.10;;;3.72;;
49123;SDS011;48506;48.202;16.274;2024-02-26T04:04:03;6.78;;;4.10;;
49123;SDS011;48506;48.202;16.274;2024-02-26T04:06:29;6.65;;;3.78;;
49123;SDS011;48506;48.202;16.274;2024-02-26T04:08:55;6.28;;;3.50;;
49123;SDS011;48506;48.202;16.274;2024-02-26T04:11:21;6.03;;;3.15;;
49123;SDS011;48506;48.202;16.274;2024-02-26T04:13:47;8.88;;;4.25;;
49123;SDS011;48506;48.202;16.274;2024-02-26T04:16:16;9.75;;;4.32;;
49123;SDS011;48506;48.202;16.274;2024-02-26T04:18:42;7.75;;;3.30;;
49123;SDS011;48506;48.202;16.274;2024-02-26T04:21:08;7.45;;;4.65;;
49123;SDS011;48506;48.202;16.274;2024-02-26T04:23:34;8.00;;;3.17;;
49123;SDS011;48506;48.202;16.274;2024-02-26T04:26:00;13.60;;;4.07;;
49123;SDS011;48506;48.202;16.274;2024-02-26T04:28:25;8.05;;;3.45;;
49123;SDS011;48506;48.202;16.274;2024-02-26T04:30:54;6.45;;;3.28;;
49123;SDS011;48506;48.202;16.274;2024-02-26T04:33:21;8.30;;;3.50;;
49123;SDS011;48506;48.202;16.274;2024-02-26T04:35:47;5.57;;;3.35;;
49123;SDS011;48506;48.202;16.274;2024-02-26T04:38:13;6.65;;;3.80;;
49123;SDS011;48506;48.202;16.274;2024-02-26T04:40:39;6.22;;;4.43;;
49123;SDS011;48506;48.202;16.274;2024-02-26T04:43:05;10.70;;;4.68;;
49123;SDS011;48506;48.202;16.274;2024-02-26T04:45:31;11.95;;;4.22;;
49123;SDS011;48506;48.202;16.274;2024-02-26T04:47:57;5.43;;;3.28;;
49123;SDS011;48506;48.202;16.274;2024-02-26T04:50:22;9.90;;;4.05;;
49123;SDS011;48506;48.202;16.274;2024-02-26T04:52:48;11.68;;;4.85;;
49123;SDS011;48506;48.202;16.274;2024-02-26T04:55:14;9.38;;;4.75;;
49123;SDS011;48506;48.202;16.274;2024-02-26T04:57:40;8.48;;;4.82;;
49123;SDS011;48506;48.202;16.274;2024-02-26T05:00:06;13.38;;;5.07;;
49123;SDS011;48506;48.202;16.274;2024-02-26T05:02:33;11.95;;;5.30;;
49123;SDS011;48506;48.202;16.274;2024-02-26T05:05:04;13.02;;;5.13;;
49123;SDS011;48506;48.202;16.274;2024-02-26T05:07:34;7.68;;;4.40;;
49123;SDS011;48506;48.202;16.274;2024-02-26T05:10:06;12.02;;;4.63;;
49123;SDS011;48506;48.202;16.274;2024-02-26T05:12:33;10.85;;;4.82;;
49123;SDS011;48506;48.202;16.274;2024-02-26T05:15:01;6.53;;;4.43;;
49123;SDS011;48506;48.202;16.274;2024-02-26T05:17:27;10.75;;;4.97;;
49123;SDS011;48506;48.202;16.274;2024-02-26T05:19:54;12.07;;;4.10;;
49123;SDS011;48506;48.202;16.274;2024-02-26T05:22:20;9.98;;;4.80;;
49123;SDS011;48506;48.202;16.274;2024-02-26T05:24:45;8.57;;;4.20;;
49123;SDS011;48506;48.202;16.274;2024-02-26T05:27:11;9.50;;;3.88;;
49123;SDS011;48506;48.202;16.274;2024-02-26T05:29:37;7.32;;;4.05;;
49123;SDS011;48506;48.202;16.274;2024-02-26T05:32:04;9.35;;;4.43;;
49123;SDS011;48506;48.202;16.274;2024-02-26T05:34:30;9.02;;;4.30;;
49123;SDS011;48506;48.202;16.274;2024-02-26T05:36:57;8.38;;;4.38;;
49123;SDS011;48506;48.202;16.274;2024-02-26T05:39:23;11.18;;;4.50;;
49123;SDS011;48506;48.202;16.274;2024-02-26T05:41:49;6.85;;;4.07;;
49123;SDS011;48506;48.202;16.274;2024-02-26T05:44:15;8.80;;;4.13;;
49123;SDS011;48506;48.202;16.274;2024-02-26T05:46:41;8.50;;;4.95;;
49123;SDS011;48506;48.202;16.274;2024-02-26T05:49:08;12.93;;;4.88;;
49123;SDS011;48506;48.202;16.274;2024-02-26T05:51:33;8.20;;;4.82;;
49123;SDS011;48506;48.202;16.274;2024-02-26T05:53:59;6.47;;;3.53;;
49123;SDS011;48506;48.202;16.274;2024-02-26T05:56:25;8.70;;;4.60;;
49123;SDS011;48506;48.202;16.274;2024-02-26T05:58:51;7.05;;;4.13;;
49123;SDS011;48506;48.202;16.274;2024-02-26T06:01:18;9.00;;;3.97;;
49123;SDS011;48506;48.202;16.274;2024-02-26T06:03:44;7.25;;;4.70;;
49123;SDS011;48506;48.202;16.274;2024-02-26T06:06:11;9.48;;;4.93;;
49123;SDS011;48506;48.202;16.274;2024-02-26T06:08:37;11.85;;;5.00;;
49123;SDS011;48506;48.202;16.274;2024-02-26T06:11:06;12.90;;;4.50;;
49123;SDS011;48506;48.202;16.274;2024-02-26T06:13:32;11.27;;;4.77;;
49123;SDS011;48506;48.202;16.274;2024-02-26T06:15:59;8.38;;;5.20;;
49123;SDS011;48506;48.202;16.274;2024-02-26T06:18:26;9.80;;;5.18;;
49123;SDS011;48506;48.202;16.274;2024-02-26T06:20:52;10.52;;;5.93;;
49123;SDS011;48506;48.202;16.274;2024-02-26T06:23:18;10.77;;;5.88;;
49123;SDS011;48506;48.202;16.274;2024-02-26T06:25:44;10.63;;;5.75;;
49123;SDS011;48506;48.202;16.274;2024-02-26T06:28:10;10.05;;;5.63;;
49123;SDS011;48506;48.202;16.274;2024-02-26T06:30:36;12.10;;;5.93;;
49123;SDS011;48506;48.202;16.274;2024-02-26T06:33:01;11.65;;;5.78;;
49123;SDS011;48506;48.202;16.274;2024-02-26T06:35:28;8.52;;;5.20;;
49123;SDS011;48506;48.202;16.274;2024-02-26T06:37:54;7.15;;;4.57;;
49123;SDS011;48506;48.202;16.274;2024-02-26T06:40:20;8.52;;;5.00;;
49123;SDS011;48506;48.202;16.274;2024-02-26T06:42:46;11.70;;;5.72;;
49123;SDS011;48506;48.202;16.274;2024-02-26T06:45:12;11.50;;;5.82;;
49123;SDS011;48506;48.202;16.274;2024-02-26T06:47:38;11.32;;;5.97;;
49123;SDS011;48506;48.202;16.274;2024-02-26T06:50:04;10.25;;;6.20;;
49123;SDS011;48506;48.202;16.274;2024-02-26T06:52:30;9.25;;;5.03;;
49123;SDS011;48506;48.202;16.274;2024-02-26T06:54:56;11.23;;;5.55;;
49123;SDS011;48506;48.202;16.274;2024-02-26T06:57:21;11.43;;;5.25;;
49123;SDS011;48506;48.202;16.274;2024-02-26T06:59:47;8.32;;;5.93;;
49123;SDS011;48506;48.202;16.274;2024-02-26T07:02:13;12.10;;;6.45;;
49123;SDS011;48506;48.202;16.274;2024-02-26T07:04:39;10.10;;;5.28;;
49123;SDS011;48506;48.202;16.274;2024-02-26T07:07:06;7.45;;;4.68;;
49123;SDS011;48506;48.202;16.274;2024-02-26T07:09:33;7.80;;;4.53;;
49123;SDS011;48506;48.202;16.274;2024-02-26T07:11:59;10.52;;;6.43;;
49123;SDS011;48506;48.202;16.274;2024-02-26T07:14:25;8.88;;;5.55;;
49123;SDS011;48506;48.202;16.274;2024-02-26T07:16:51;10.07;;;4.57;;
49123;SDS011;48506;48.202;16.274;2024-02-26T07:19:17;9.52;;;5.00;;
49123;SDS011;48506;48.202;16.274;2024-02-26T07:21:43;8.63;;;4.40;;
49123;SDS011;48506;48.202;16.274;2024-02-26T07:24:09;7.88;;;4.75;;
49123;SDS011;48506;48.202;16.274;2024-02-26T07:26:35;8.85;;;4.70;;
49123;SDS011;48506;48.202;16.274;2024-02-26T07:29:01;8.02;;;4.78;;
49123;SDS011;48506;48.202;16.274;2024-02-26T07:31:29;10.55;;;5.05;;
49123;SDS011;48506;48.202;16.274;2024-02-26T07:33:55;8.10;;;4.45;;
49123;SDS011;48506;48.202;16.274;2024-02-26T07:36:20;8.75;;;5.18;;
49123;SDS011;48506;48.202;16.274;2024-02-26T07:38:47;7.93;;;4.85;;
49123;SDS011;48506;48.202;16.274;2024-02-26T07:41:12;8.75;;;4.82;;
49123;SDS011;48506;48.202;16.274;2024-02-26T07:43:39;6.45;;;4.38;;
49123;SDS011;48506;48.202;16.274;2024-02-26T07:46:06;9.65;;;4.75;;
49123;SDS011;48506;48.202;16.274;2024-02-26T07:48:32;12.07;;;5.43;;
49123;SDS011;48506;48.202;16.274;2024-02-26T07:50:59;8.65;;;5.07;;
49123;SDS011;48506;48.202;16.274;2024-02-26T07:53:25;8.60;;;4.70;;
49123;SDS011;48506;48.202;16.274;2024-02-26T07:55:51;12.23;;;4.60;;
49123;SDS011;48506;48.202;16.274;2024-02-26T07:58:17;8.10;;;4.97;;
49123;SDS011;48506;48.202;16.274;2024-02-26T08:00:43;9.70;;;4.95;;
49123;SDS011;48506;48.202;16.274;2024-02-26T08:03:09;9.48;;;4.70;;
49123;SDS011;48506;48.202;16.274;2024-02-26T08:05:34;6.35;;;4.47;;
49123;SDS011;48506;48.202;16.274;2024-02-26T08:08:01;11.55;;;4.63;;
49123;SDS011;48506;48.202;16.274;2024-02-26T08:10:27;10.45;;;5.38;;
49123;SDS011;48506;48.202;16.274;2024-02-26T08:12:53;10.27;;;4.88;;
49123;SDS011;48506;48.202;16.274;2024-02-26T08:15:19;10.27;;;5.05;;
49123;SDS011;48506;48.202;16.274;2024-02-26T08:17:45;12.02;;;5.32;;
49123;SDS011;48506;48.202;16.274;2024-02-26T08:20:12;10.45;;;5.65;;
49123;SDS011;48506;48.202;16.274;2024-02-26T08:22:38;9.70;;;5.50;;
49123;SDS011;48506;48.202;16.274;2024-02-26T08:25:04;10.43;;;5.28;;
49123;SDS011;48506;48.202;16.274;2024-02-26T08:27:32;10.23;;;5.57;;
49123;SDS011;48506;48.202;16.274;2024-02-26T08:29:58;9.77;;;5.60;;
49123;SDS011;48506;48.202;16.274;2024-02-26T08:32:24;8.23;;;5.38;;
49123;SDS011;48506;48.202;16.274;2024-02-26T08:34:50;10.30;;;6.43;;
49123;SDS011;48506;48.202;16.274;2024-02-26T08:37:16;13.20;;;5.82;;
49123;SDS011;48506;48.202;16.274;2024-02-26T08:39:43;8.30;;;5.55;;
49123;SDS011;48506;48.202;16.274;2024-02-26T08:42:09;9.35;;;5.40;;
49123;SDS011;48506;48.202;16.274;2024-02-26T08:44:35;11.18;;;6.55;;
49123;SDS011;48506;48.202;16.274;2024-02-26T08:47:01;14.20;;;6.43;;
49123;SDS011;48506;48.202;16.274;2024-02-26T08:49:27;7.93;;;4.93;;
49123;SDS011;48506;48.202;16.274;2024-02-26T08:51:53;9.95;;;5.47;;
49123;SDS011;48506;48.202;16.274;2024-02-26T08:54:19;11.73;;;6.78;;
49123;SDS011;48506;48.202;16.274;2024-02-26T08:56:45;9.35;;;6.15;;
49123;SDS011;48506;48.202;16.274;2024-02-26T08:59:11;10.75;;;6.13;;
49123;SDS011;48506;48.202;16.274;2024-02-26T09:01:37;9.05;;;5.40;;
49123;SDS011;48506;48.202;16.274;2024-02-26T09:04:03;10.90;;;6.63;;
49123;SDS011;48506;48.202;16.274;2024-02-26T09:06:29;10.35;;;5.88;;
49123;SDS011;48506;48.202;16.274;2024-02-26T09:08:55;9.20;;;5.60;;
49123;SDS011;48506;48.202;16.274;2024-02-26T09:11:21;9.95;;;6.05;;
49123;SDS011;48506;48.202;16.274;2024-02-26T09:13:47;10.20;;;5.65;;
49123;SDS011;48506;48.202;16.274;2024-02-26T09:16:13;8.15;;;5.07;;
49123;SDS011;48506;48.202;16.274;2024-02-26T09:18:39;8.10;;;6.15;;
49123;SDS011;48506;48.202;16.274;2024-02-26T09:21:06;9.18;;;4.75;;
49123;SDS011;48506;48.202;16.274;2024-02-26T09:23:32;6.93;;;4.60;;
49123;SDS011;48506;48.202;16.274;2024-02-26T09:26:00;8.23;;;5.15;;
49123;SDS011;48506;48.202;16.274;2024-02-26T09:28:26;7.75;;;4.57;;
49123;SDS011;48506;48.202;16.274;2024-02-26T09:30:52;6.80;;;4.10;;
49123;SDS011;48506;48.202;16.274;2024-02-26T09:33:19;7.68;;;4.55;;
49123;SDS011;48506;48.202;16.274;2024-02-26T09:35:44;6.07;;;3.97;;
49123;SDS011;48506;48.202;16.274;2024-02-26T09:38:10;6.03;;;3.60;;
49123;SDS011;48506;48.202;16.274;2024-02-26T09:40:36;8.85;;;3.45;;
49123;SDS011;48506;48.202;16.274;2024-02-26T09:43:03;6.38;;;2.92;;
49123;SDS011;48506;48.202;16.274;2024-02-26T09:45:30;9.48;;;3.15;;
49123;SDS011;48506;48.202;16.274;2024-02-26T09:47:59;5.25;;;2.83;;
49123;SDS011;48506;48.202;16.274;2024-02-26T09:50:28;4.45;;;2.67;;
49123;SDS011;48506;48.202;16.274;2024-02-26T09:52:54;4.85;;;2.80;;
49123;SDS011;48506;48.202;16.274;2024-02-26T09:55:25;3.47;;;2.10;;
49123;SDS011;48506;48.202;16.274;2024-02-26T09:57:51;10.52;;;2.42;;
49123;SDS011;48506;48.202;16.274;2024-02-26T10:00:18;6.30;;;2.13;;
49123;SDS011;48506;48.202;16.274;2024-02-26T10:02:46;5.00;;;2.63;;
49123;SDS011;48506;48.202;16.274;2024-02-26T10:05:14;2.78;;;1.58;;
49123;SDS011;48506;48.202;16.274;2024-02-26T10:07:47;5.03;;;1.80;;
49123;SDS011;48506;48.202;16.274;2024-02-26T10:10:14;4.93;;;2.42;;
49123;SDS011;48506;48.202;16.274;2024-02-26T10:12:41;6.85;;;2.83;;
49123;SDS011;48506;48.202;16.274;2024-02-26T10:15:07;5.45;;;2.00;;
49123;SDS011;48506;48.202;16.274;2024-02-26T10:17:34;6.10;;;1.70;;
49123;SDS011;48506;48.202;16.274;2024-02-26T10:20:15;2.65;;;1.92;;
49123;SDS011;48506;48.202;16.274;2024-02-26T10:22:48;4.95;;;2.00;;
49123;SDS011;48506;48.202;16.274;2024-02-26T10:25:15;5.57;;;1.95;;
49123;SDS011;48506;48.202;16.274;2024-02-26T10:27:41;4.93;;;1.70;;
49123;SDS011;48506;48.202;16.274;2024-02-26T10:32:47;3.10;;;1.75;;
49123;SDS011;48506;48.202;16.274;2024-02-26T10:35:14;4.78;;;1.85;;
49123;SDS011;48506;48.202;16.274;2024-02-26T10:37:46;2.85;;;1.67;;
49123;SDS011;48506;48.202;16.274;2024-02-26T10:40:12;3.53;;;1.70;;
49123;SDS011;48506;48.202;16.274;2024-02-26T10:42:40;3.45;;;1.90;;
49123;SDS011;48506;48.202;16.274;2024-02-26T10:45:07;2.53;;;1.67;;
49123;SDS011;48506;48.202;16.274;2024-02-26T10:47:35;7.13;;;2.15;;
49123;SDS011;48506;48.202;16.274;2024-02-26T10:50:05;2.55;;;1.80;;
49123;SDS011;48506;48.202;16.274;2024-02-26T10:52:32;3.35;;;1.75;;
49123;SDS011;48506;48.202;16.274;2024-02-26T10:55:03;3.17;;;2.00;;
49123;SDS011;48506;48.202;16.274;2024-02-26T10:57:33;7.38;;;2.40;;
49123;SDS011;48506;48.202;16.274;2024-02-26T11:00:03;4.28;;;2.10;;
49123;SDS011;48506;48.202;16.274;2024-02-26T11:02:33;4.95;;;2.00;;
49123;SDS011;48506;48.202;16.274;2024-02-26T11:05:02;5.20;;;2.38;;
49123;SDS011;48506;48.202;16.274;2024-02-26T11:07:31;4.43;;;1.98;;
49123;SDS011;48506;48.202;16.274;2024-02-26T11:09:59;3.95;;;2.35;;
49123;SDS011;48506;48.202;16.274;2024-02-26T11:12:27;2.55;;;1.73;;
49123;SDS011;48506;48.202;16.274;2024-02-26T11:14:55;5.72;;;2.05;;
49123;SDS011;48506;48.202;16.274;2024-02-26T11:17:25;3.00;;;2.00;;
49123;SDS011;48506;48.202;16.274;2024-02-26T11:19:57;5.00;;;1.80;;
49123;SDS011;48506;48.202;16.274;2024-02-26T11:22:27;2.70;;;1.90;;
49123;SDS011;48506;48.202;16.274;2024-02-26T11:24:54;2.55;;;1.77;;
49123;SDS011;48506;48.202;16.274;2024-02-26T11:27:27;5.63;;;1.63;;
49123;SDS011;48506;48.202;16.274;2024-02-26T11:29:58;2.55;;;1.35;;
49123;SDS011;48506;48.202;16.274;2024-02-26T11:32:27;2.70;;;1.37;;
49123;SDS011;48506;48.202;16.274;2024-02-26T11:34:55;3.65;;;1.52;;
49123;SDS011;48506;48.202;16.274;2024-02-26T11:37:23;4.25;;;1.48;;
49123;SDS011;48506;48.202;16.274;2024-02-26T11:39:49;4.47;;;1.55;;
49123;SDS011;48506;48.202;16.274;2024-02-26T11:42:17;3.72;;;1.33;;
49123;SDS011;48506;48.202;16.274;2024-02-26T11:44:47;3.20;;;1.30;;
49123;SDS011;48506;48.202;16.274;2024-02-26T11:47:15;2.05;;;1.33;;
49123;SDS011;48506;48.202;16.274;2024-02-26T11:49:45;4.95;;;1.13;;
49123;SDS011;48506;48.202;16.274;2024-02-26T11:52:12;1.30;;;0.93;;
49123;SDS011;48506;48.202;16.274;2024-02-26T11:57:23;1.52;;;0.80;;
49123;SDS011;48506;48.202;16.274;2024-02-26T11:59:50;3.25;;;1.50;;
49123;SDS011;48506;48.202;16.274;2024-02-26T12:05:06;2.25;;;0.70;;
49123;SDS011;48506;48.202;16.274;2024-02-26T12:07:49;3.30;;;0.98;;
49123;SDS011;48506;48.202;16.274;2024-02-26T12:10:31;4.28;;;1.27;;
49123;SDS011;48506;48.202;16.274;2024-02-26T12:13:07;1.80;;;1.13;;
49123;SDS011;48506;48.202;16.274;2024-02-26T12:15:39;3.17;;;1.13;;
49123;SDS011;48506;48.202;16.274;2024-02-26T12:18:15;7.30;;;1.15;;
49123;SDS011;48506;48.202;16.274;2024-02-26T12:20:43;2.90;;;1.40;;
49123;SDS011;48506;48.202;16.274;2024-02-26T12:23:10;7.78;;;1.30;;
49123;SDS011;48506;48.202;16.274;2024-02-26T12:25:43;2.92;;;0.93;;
49123;SDS011;48506;48.202;16.274;2024-02-26T12:28:09;2.88;;;1.27;;
49123;SDS011;48506;48.202;16.274;2024-02-26T12:30:35;2.28;;;1.30;;
49123;SDS011;48506;48.202;16.274;2024-02-26T12:33:02;2.20;;;1.20;;
49123;SDS011;48506;48.202;16.274;2024-02-26T12:35:28;2.30;;;1.30;;
49123;SDS011;48506;48.202;16.274;2024-02-26T12:37:57;3.03;;;1.20;;
49123;SDS011;48506;48.202;16.274;2024-02-26T12:40:24;3.22;;;1.60;;
49123;SDS011;48506;48.202;16.274;2024-02-26T12:42:53;3.45;;;1.65;;
49123;SDS011;48506;48.202;16.274;2024-02-26T12:45:21;4.80;;;1.48;;
49123;SDS011;48506;48.202;16.274;2024-02-26T12:47:47;2.75;;;1.20;;
49123;SDS011;48506;48.202;16.274;2024-02-26T12:50:16;3.47;;;1.27;;
49123;SDS011;48506;48.202;16.274;2024-02-26T12:52:43;3.58;;;1.30;;
49123;SDS011;48506;48.202;16.274;2024-02-26T12:55:18;4.05;;;2.22;;
49123;SDS011;48506;48.202;16.274;2024-02-26T12:57:45;4.68;;;1.88;;
49123;SDS011;48506;48.202;16.274;2024-02-26T13:00:12;2.67;;;1.48;;
49123;SDS011;48506;48.202;16.274;2024-02-26T13:02:47;6.25;;;3.65;;
49123;SDS011;48506;48.202;16.274;2024-02-26T13:05:15;7.05;;;3.75;;
49123;SDS011;48506;48.202;16.274;2024-02-26T13:07:43;3.85;;;1.92;;
49123;SDS011;48506;48.202;16.274;2024-02-26T13:10:13;7.22;;;1.88;;
49123;SDS011;48506;48.202;16.274;2024-02-26T13:12:46;1.90;;;1.58;;
49123;SDS011;48506;48.202;16.274;2024-02-26T13:15:21;5.63;;;2.65;;
49123;SDS011;48506;48.202;16.274;2024-02-26T13:17:48;7.82;;;4.20;;
49123;SDS011;48506;48.202;16.274;2024-02-26T13:20:28;5.97;;;4.07;;
49123;SDS011;48506;48.202;16.274;2024-02-26T13:23:04;8.75;;;3.55;;
49123;SDS011;48506;48.202;16.274;2024-02-26T13:25:32;3.83;;;1.92;;
49123;SDS011;48506;48.202;16.274;2024-02-26T13:28:15;4.43;;;2.13;;
49123;SDS011;48506;48.202;16.274;2024-02-26T13:30:55;5.03;;;1.48;;
49123;SDS011;48506;48.202;16.274;2024-02-26T13:33:26;3.45;;;1.10;;
49123;SDS011;48506;48.202;16.274;2024-02-26T13:35:54;3.50;;;1.60;;
49123;SDS011;48506;48.202;16.274;2024-02-26T13:38:22;10.35;;;1.48;;
49123;SDS011;48506;48.202;16.274;2024-02-26T13:40:52;3.22;;;1.60;;
49123;SDS011;48506;48.202;16.274;2024-02-26T13:43:18;2.92;;;1.10;;
49123;SDS011;48506;48.202;16.274;2024-02-26T13:45:45;3.58;;;1.27;;
49123;SDS011;48506;48.202;16.274;2024-02-26T13:48:12;2.10;;;1.08;;
49123;SDS011;48506;48.202;16.274;2024-02-26T13:50:40;3.40;;;2.35;;
49123;SDS011;48506;48.202;16.274;2024-02-26T13:53:10;4.18;;;1.67;;
49123;SDS011;48506;48.202;16.274;2024-02-26T13:55:39;4.10;;;1.85;;
49123;SDS011;48506;48.202;16.274;2024-02-26T13:58:11;2.35;;;1.20;;
49123;SDS011;48506;48.202;16.274;2024-02-26T14:00:39;4.53;;;1.35;;
49123;SDS011;48506;48.202;16.274;2024-02-26T14:03:06;4.20;;;2.33;;
49123;SDS011;48506;48.202;16.274;2024-02-26T14:05:33;3.63;;;1.80;;
49123;SDS011;48506;48.202;16.274;2024-02-26T14:07:58;3.30;;;2.13;;
49123;SDS011;48506;48.202;16.274;2024-02-26T14:10:24;2.03;;;1.60;;
49123;SDS011;48506;48.202;16.274;2024-02-26T14:12:51;1.50;;;1.02;;
49123;SDS011;48506;48.202;16.274;2024-02-26T14:15:17;3.78;;;1.42;;
49123;SDS011;48506;48.202;16.274;2024-02-26T14:17:43;2.80;;;1.38;;
49123;SDS011;48506;48.202;16.274;2024-02-26T14:20:09;5.75;;;1.77;;
49123;SDS011;48506;48.202;16.274;2024-02-26T14:22:35;4.32;;;0.95;;
49123;SDS011;48506;48.202;16.274;2024-02-26T14:25:01;2.45;;;1.20;;
49123;SDS011;48506;48.202;16.274;2024-02-26T14:27:27;4.65;;;1.15;;
49123;SDS011;48506;48.202;16.274;2024-02-26T14:29:53;5.32;;;1.30;;
49123;SDS011;48506;48.202;16.274;2024-02-26T14:32:20;3.13;;;1.05;;
49123;SDS011;48506;48.202;16.274;2024-02-26T14:34:47;1.80;;;1.08;;
49123;SDS011;48506;48.202;16.274;2024-02-26T14:37:12;2.70;;;1.35;;